createdAt,value
2022-12-28T00:01:46.532Z,2.90
2022-12-28T00:04:17.596Z,2.70
2022-12-28T00:06:45.532Z,2.23
2022-12-28T00:09:13.330Z,2.67
2022-12-28T00:11:40.677Z,2.63
2022-12-28T00:14:08.080Z,2.50
2022-12-28T00:16:41.738Z,2.40
2022-12-28T00:19:16.728Z,2.60
2022-12-28T00:21:45.668Z,2.47
2022-12-28T00:24:20.704Z,2.73
2022-12-28T00:26:48.395Z,2.20
2022-12-28T00:29:15.620Z,2.60
2022-12-28T00:31:45.988Z,2.20
2022-12-28T00:34:13.677Z,2.40
2022-12-28T00:37:10.477Z,2.23
2022-12-28T00:39:28.095Z,2.93
2022-12-28T00:41:55.166Z,2.47
2022-12-28T00:44:22.183Z,2.33
2022-12-28T00:46:50.093Z,3.10
2022-12-28T00:49:17.090Z,2.83
2022-12-28T00:51:44.410Z,2.80
2022-12-28T00:54:11.541Z,2.77
2022-12-28T00:56:43.131Z,2.67
2022-12-28T00:59:10.983Z,2.80
2022-12-28T01:01:38.584Z,2.70
2022-12-28T01:04:05.878Z,2.50
2022-12-28T01:06:32.991Z,3.00
2022-12-28T01:09:00.643Z,3.60
2022-12-28T01:11:30.652Z,2.63
2022-12-28T01:14:01.259Z,2.37
2022-12-28T01:16:35.260Z,2.83
2022-12-28T01:19:05.983Z,3.17
2022-12-28T01:21:35.140Z,2.80
2022-12-28T01:24:04.933Z,2.60
2022-12-28T01:26:32.077Z,2.70
2022-12-28T01:28:59.557Z,2.70
2022-12-28T01:31:27.008Z,2.90
2022-12-28T01:33:55.244Z,3.57
2022-12-28T01:36:29.069Z,3.10
2022-12-28T01:38:59.173Z,2.97
2022-12-28T01:41:29.333Z,2.50
2022-12-28T01:43:58.968Z,2.80
2022-12-28T01:46:44.262Z,2.70
2022-12-28T01:49:30.261Z,2.90
2022-12-28T01:52:00.930Z,2.87
2022-12-28T01:54:33.562Z,2.87
2022-12-28T01:57:02.588Z,2.80
2022-12-28T01:59:33.953Z,2.60
2022-12-28T02:02:01.198Z,3.30
2022-12-28T02:04:28.780Z,2.73
2022-12-28T02:06:56.437Z,3.00
2022-12-28T02:09:37.779Z,3.40
2022-12-28T02:12:06.380Z,2.33
2022-12-28T02:14:34.157Z,2.50
2022-12-28T02:17:01.440Z,2.80
2022-12-28T02:19:47.158Z,4.73
2022-12-28T02:22:52.644Z,2.43
2022-12-28T02:26:00.041Z,3.03
2022-12-28T02:29:07.486Z,2.63
2022-12-28T02:32:06.386Z,2.20
2022-12-28T02:35:01.804Z,2.70
2022-12-28T02:37:41.560Z,2.80
2022-12-28T02:40:27.551Z,2.90
2022-12-28T02:42:55.337Z,2.53
2022-12-28T02:45:53.836Z,2.67
2022-12-28T02:48:40.042Z,2.73
2022-12-28T02:51:43.910Z,2.63
2022-12-28T02:55:04.415Z,2.30
2022-12-28T02:58:00.223Z,2.73
2022-12-28T03:01:10.857Z,2.63
2022-12-28T03:04:39.488Z,2.30
2022-12-28T03:07:55.649Z,3.53
2022-12-28T03:10:48.704Z,2.60
2022-12-28T03:13:50.757Z,3.10
2022-12-28T03:17:04.959Z,3.00
2022-12-28T03:20:00.491Z,3.10
2022-12-28T03:22:49.672Z,3.03
2022-12-28T03:25:40.096Z,3.10
2022-12-28T03:28:31.772Z,3.13
2022-12-28T03:31:09.187Z,3.30
2022-12-28T03:33:51.954Z,3.00
2022-12-28T03:36:36.166Z,3.13
2022-12-28T03:39:15.759Z,3.37
2022-12-28T03:42:17.240Z,3.20
2022-12-28T03:44:57.286Z,2.93
2022-12-28T03:47:27.545Z,3.10
2022-12-28T03:49:55.168Z,3.30
2022-12-28T03:52:22.384Z,3.30
2022-12-28T03:54:49.516Z,2.93
2022-12-28T03:57:17.114Z,3.37
2022-12-28T03:59:44.091Z,3.30
2022-12-28T04:02:11.246Z,2.87
2022-12-28T04:04:38.454Z,3.33
2022-12-28T04:07:05.528Z,3.60
2022-12-28T04:09:32.634Z,3.57
2022-12-28T04:11:59.727Z,3.33
2022-12-28T04:14:26.788Z,3.50
2022-12-28T04:16:53.834Z,3.30
2022-12-28T04:19:20.943Z,3.00
2022-12-28T04:21:48.086Z,3.17
2022-12-28T04:24:15.074Z,2.90
2022-12-28T04:26:42.050Z,3.57
2022-12-28T04:29:09.007Z,3.37
2022-12-28T04:31:36.127Z,3.80
2022-12-28T04:34:03.337Z,3.20
2022-12-28T04:36:30.315Z,3.13
2022-12-28T04:38:59.975Z,3.50
2022-12-28T04:41:27.375Z,2.70
2022-12-28T04:43:58.223Z,3.63
2022-12-28T04:46:25.361Z,3.20
2022-12-28T04:48:52.670Z,3.43
2022-12-28T04:51:25.559Z,3.40
2022-12-28T04:53:54.867Z,2.60
2022-12-28T04:56:24.389Z,3.00
2022-12-28T04:58:57.022Z,3.13
2022-12-28T05:01:24.623Z,3.17
2022-12-28T05:03:57.820Z,2.57
2022-12-28T05:06:27.791Z,2.43
2022-12-28T05:08:57.207Z,2.53
2022-12-28T05:11:28.161Z,2.70
2022-12-28T05:13:56.265Z,3.00
2022-12-28T05:16:26.925Z,2.50
2022-12-28T05:18:56.506Z,2.80
2022-12-28T05:21:28.809Z,2.60
2022-12-28T05:23:56.883Z,2.50
2022-12-28T05:26:29.801Z,2.47
2022-12-28T05:28:58.930Z,2.00
2022-12-28T05:31:27.154Z,1.70
2022-12-28T05:33:55.285Z,2.50
2022-12-28T05:36:26.432Z,2.50
2022-12-28T05:38:55.522Z,2.23
2022-12-28T05:41:28.911Z,2.20
2022-12-28T05:43:58.800Z,2.70
2022-12-28T05:46:33.183Z,2.30
2022-12-28T05:49:01.222Z,2.00
2022-12-28T05:51:31.456Z,2.20
2022-12-28T05:54:00.737Z,2.20
2022-12-28T05:56:33.227Z,1.77
2022-12-28T05:59:03.901Z,1.73
2022-12-28T06:01:35.220Z,2.10
2022-12-28T06:04:11.084Z,1.93
2022-12-28T06:06:38.118Z,2.27
2022-12-28T06:09:05.307Z,2.10
2022-12-28T06:11:32.721Z,1.90
2022-12-28T06:14:00.496Z,2.17
2022-12-28T06:16:30.995Z,2.10
2022-12-28T06:18:58.312Z,1.70
2022-12-28T06:21:31.027Z,2.20
2022-12-28T06:24:00.343Z,1.90
2022-12-28T06:26:30.811Z,2.10
2022-12-28T06:28:58.908Z,2.10
2022-12-28T06:31:29.324Z,1.70
2022-12-28T06:33:59.026Z,2.00
2022-12-28T06:36:38.331Z,2.17
2022-12-28T06:39:07.947Z,1.97
2022-12-28T06:41:35.403Z,2.03
2022-12-28T06:44:05.339Z,1.90
2022-12-28T06:46:32.419Z,2.50
2022-12-28T06:48:59.615Z,2.30
2022-12-28T06:51:40.702Z,1.77
2022-12-28T06:54:09.476Z,2.23
2022-12-28T06:56:37.630Z,2.00
2022-12-28T06:59:05.210Z,2.40
2022-12-28T07:01:41.425Z,1.90
2022-12-28T07:04:10.483Z,2.00
2022-12-28T07:06:43.770Z,2.03
2022-12-28T07:09:15.391Z,2.00
2022-12-28T07:11:44.199Z,2.40
2022-12-28T07:14:11.838Z,2.57
2022-12-28T07:19:04.861Z,1.90
2022-12-28T07:21:38.985Z,2.20
2022-12-28T07:24:07.629Z,2.23
2022-12-28T07:26:37.033Z,2.17
2022-12-28T07:29:06.494Z,2.20
2022-12-28T07:31:43.593Z,1.77
2022-12-28T07:34:12.841Z,2.50
2022-12-28T07:36:39.913Z,2.10
2022-12-28T07:39:07.049Z,1.97
2022-12-28T07:41:36.201Z,2.47
2022-12-28T07:44:03.292Z,2.23
2022-12-28T07:46:33.990Z,2.40
2022-12-28T07:49:01.230Z,2.67
2022-12-28T07:51:35.154Z,3.03
2022-12-28T07:54:03.128Z,2.67
2022-12-28T07:59:01.645Z,2.70
2022-12-28T08:01:32.416Z,3.20
2022-12-28T08:04:02.834Z,2.83
2022-12-28T08:06:33.260Z,3.13
2022-12-28T08:09:01.683Z,3.73
2022-12-28T08:11:32.362Z,3.27
2022-12-28T08:14:01.105Z,3.20
2022-12-28T08:16:36.737Z,3.30
2022-12-28T08:19:04.679Z,3.83
2022-12-28T08:21:37.072Z,3.33
2022-12-28T08:24:05.418Z,4.03
2022-12-28T08:26:36.340Z,4.17
2022-12-28T08:29:09.002Z,4.10
2022-12-28T08:31:39.898Z,4.30
2022-12-28T08:34:13.112Z,4.20
2022-12-28T08:36:40.777Z,4.50
2022-12-28T08:39:09.831Z,4.50
2022-12-28T08:41:37.094Z,4.53
2022-12-28T08:44:04.454Z,4.70
2022-12-28T08:46:35.252Z,4.50
2022-12-28T08:49:03.490Z,4.60
2022-12-28T08:51:42.354Z,4.27
2022-12-28T08:54:12.143Z,4.70
2022-12-28T08:56:41.304Z,3.67
2022-12-28T08:59:09.010Z,3.57
2022-12-28T09:01:44.320Z,3.70
2022-12-28T09:04:21.238Z,3.53
2022-12-28T09:06:49.354Z,3.77
2022-12-28T09:09:19.666Z,3.93
2022-12-28T09:11:47.652Z,3.10
2022-12-28T09:14:24.469Z,3.23
2022-12-28T09:16:53.586Z,3.10
2022-12-28T09:19:21.525Z,3.20
2022-12-28T09:21:52.219Z,2.70
2022-12-28T09:24:19.370Z,2.63
2022-12-28T09:26:46.578Z,3.10
2022-12-28T09:29:14.569Z,2.97
2022-12-28T09:31:44.170Z,2.70
2022-12-28T09:37:00.787Z,2.57
2022-12-28T09:39:29.115Z,3.03
2022-12-28T09:42:03.368Z,3.00
2022-12-28T09:45:03.265Z,2.73
2022-12-28T09:47:32.956Z,2.80
2022-12-28T09:50:21.811Z,2.77
2022-12-28T09:53:16.546Z,2.93
2022-12-28T09:56:34.441Z,2.87
2022-12-28T09:59:05.523Z,3.30
2022-12-28T10:01:40.292Z,3.20
2022-12-28T10:04:08.494Z,3.57
2022-12-28T10:06:37.187Z,3.20
2022-12-28T10:09:12.200Z,3.17
2022-12-28T10:11:44.228Z,3.47
2022-12-28T10:14:30.347Z,3.80
2022-12-28T10:16:57.452Z,3.60
2022-12-28T10:19:27.481Z,3.87
2022-12-28T10:22:08.474Z,3.30
2022-12-28T10:24:36.324Z,3.00
2022-12-28T10:27:06.921Z,2.93
2022-12-28T10:29:34.677Z,3.10
2022-12-28T10:32:06.425Z,3.40
2022-12-28T10:34:35.571Z,3.47
2022-12-28T10:37:36.068Z,3.70
2022-12-28T10:40:14.955Z,4.87
2022-12-28T10:42:46.541Z,3.57
2022-12-28T10:45:36.813Z,3.90
2022-12-28T10:48:15.893Z,3.70
2022-12-28T10:51:11.911Z,4.37
2022-12-28T10:53:55.024Z,4.20
2022-12-28T10:56:31.316Z,3.43
2022-12-28T10:59:10.599Z,3.50
2022-12-28T11:01:37.794Z,3.27
2022-12-28T11:04:25.931Z,3.37
2022-12-28T11:07:01.746Z,3.20
2022-12-28T11:09:31.721Z,3.47
2022-12-28T11:12:26.546Z,2.93
2022-12-28T11:14:54.277Z,2.73
2022-12-28T11:17:27.603Z,2.93
2022-12-28T11:20:14.433Z,2.60
2022-12-28T11:22:41.481Z,2.73
2022-12-28T11:25:08.851Z,2.47
2022-12-28T11:27:36.893Z,2.47
2022-12-28T11:30:05.347Z,2.40
2022-12-28T11:32:43.148Z,2.60
2022-12-28T11:35:40.268Z,2.33
2022-12-28T11:38:11.679Z,1.90
2022-12-28T11:40:44.686Z,2.20
2022-12-28T11:43:49.437Z,2.70
2022-12-28T11:46:22.746Z,2.43
2022-12-28T11:49:20.824Z,2.73
2022-12-28T11:51:48.060Z,2.10
2022-12-28T11:54:37.813Z,2.30
2022-12-28T11:57:04.984Z,2.23
2022-12-28T11:59:35.010Z,1.87
2022-12-28T12:02:28.402Z,1.97
2022-12-28T12:04:55.478Z,2.27
2022-12-28T12:07:44.272Z,1.70
2022-12-28T12:10:29.491Z,1.90
2022-12-28T12:13:01.191Z,1.97
2022-12-28T12:15:42.891Z,1.80
2022-12-28T12:18:26.441Z,1.70
2022-12-28T12:21:02.160Z,1.70
2022-12-28T12:23:52.171Z,1.97
2022-12-28T12:26:49.305Z,1.70
2022-12-28T12:29:25.978Z,2.07
2022-12-28T12:32:15.110Z,1.87
2022-12-28T12:34:48.854Z,1.70
2022-12-28T12:37:52.188Z,2.03
2022-12-28T12:40:37.085Z,2.23
2022-12-28T12:43:55.839Z,2.03
2022-12-28T12:46:53.546Z,1.77
2022-12-28T12:50:01.354Z,1.57
2022-12-28T12:53:04.282Z,1.90
2022-12-28T12:56:03.000Z,1.97
2022-12-28T12:59:02.156Z,1.53
2022-12-28T13:02:14.031Z,1.70
2022-12-28T13:04:46.096Z,1.60
2022-12-28T13:07:28.014Z,1.53
2022-12-28T13:10:02.480Z,1.73
2022-12-28T13:12:29.703Z,2.10
2022-12-28T13:15:06.058Z,1.70
2022-12-28T13:17:37.908Z,1.60
2022-12-28T13:20:20.672Z,1.87
2022-12-28T13:22:49.458Z,2.27
2022-12-28T13:25:34.637Z,1.73
2022-12-28T13:28:03.885Z,1.80
2022-12-28T13:30:31.184Z,2.23
2022-12-28T13:33:03.122Z,1.63
2022-12-28T13:35:33.352Z,1.80
2022-12-28T13:38:23.728Z,1.90
2022-12-28T13:40:53.455Z,1.60
2022-12-28T13:44:01.117Z,1.67
2022-12-28T13:46:30.035Z,1.77
2022-12-28T13:48:59.406Z,1.70
2022-12-28T13:51:26.704Z,2.60
2022-12-28T13:54:00.427Z,3.97
2022-12-28T13:56:29.485Z,2.70
2022-12-28T13:59:03.391Z,1.93
2022-12-28T14:01:37.465Z,1.97
2022-12-28T14:04:50.648Z,2.10
2022-12-28T14:06:56.576Z,1.77
2022-12-28T14:09:24.212Z,1.63
2022-12-28T14:11:51.533Z,1.77
2022-12-28T14:14:18.921Z,1.80
2022-12-28T14:16:46.295Z,1.90
2022-12-28T14:19:13.611Z,1.60
2022-12-28T14:21:45.333Z,1.63
2022-12-28T14:24:16.884Z,1.83
2022-12-28T14:26:57.823Z,1.70
2022-12-28T14:29:32.761Z,1.83
2022-12-28T14:32:13.047Z,2.10
2022-12-28T14:34:40.353Z,1.53
2022-12-28T14:37:22.710Z,1.57
2022-12-28T14:39:49.861Z,1.30
2022-12-28T14:42:24.236Z,1.50
2022-12-28T14:44:56.325Z,1.50
2022-12-28T14:47:46.991Z,1.27
2022-12-28T14:50:29.725Z,1.40
2022-12-28T14:53:13.825Z,1.77
2022-12-28T14:56:18.772Z,1.30
2022-12-28T14:58:58.229Z,1.60
2022-12-28T15:01:39.463Z,1.20
2022-12-28T15:04:06.794Z,1.67
2022-12-28T15:06:34.878Z,1.43
2022-12-28T15:09:05.004Z,1.53
2022-12-28T15:11:32.026Z,1.53
2022-12-28T15:13:59.148Z,2.10
2022-12-28T15:16:26.254Z,1.97
2022-12-28T15:18:53.435Z,1.70
2022-12-28T15:21:23.343Z,1.43
2022-12-28T15:23:52.518Z,2.07
2022-12-28T15:26:21.859Z,1.60
2022-12-28T15:28:48.872Z,1.70
2022-12-28T15:31:21.840Z,1.60
2022-12-28T15:33:49.495Z,1.73
2022-12-28T15:36:20.336Z,1.60
2022-12-28T15:38:48.663Z,1.23
2022-12-28T15:41:36.217Z,1.50
2022-12-28T15:44:04.482Z,1.83
2022-12-28T15:46:32.059Z,1.80
2022-12-28T15:49:03.924Z,1.80
2022-12-28T15:51:31.041Z,1.70
2022-12-28T15:53:58.150Z,1.27
2022-12-28T15:56:31.506Z,1.90
2022-12-28T15:59:00.987Z,1.70
2022-12-28T16:01:29.807Z,1.60
2022-12-28T16:04:00.636Z,1.60
2022-12-28T16:06:30.077Z,1.80
2022-12-28T16:08:59.724Z,1.97
2022-12-28T16:11:29.607Z,1.70
2022-12-28T16:14:00.279Z,1.50
2022-12-28T16:16:30.966Z,1.50
2022-12-28T16:18:58.496Z,2.03
2022-12-28T16:21:27.033Z,1.67
2022-12-28T16:23:54.499Z,1.93
2022-12-28T16:26:22.378Z,1.43
2022-12-28T16:28:50.027Z,2.03
2022-12-28T16:31:38.627Z,1.50
2022-12-28T16:34:16.827Z,1.57
2022-12-28T16:36:46.529Z,1.50
2022-12-28T16:39:16.877Z,2.10
2022-12-28T16:41:44.171Z,1.80
2022-12-28T16:44:19.401Z,1.60
2022-12-28T16:46:47.394Z,2.33
2022-12-28T16:49:14.780Z,1.80
2022-12-28T16:51:45.455Z,1.87
2022-12-28T16:54:24.957Z,1.67
2022-12-28T16:56:52.887Z,1.77
2022-12-28T16:59:27.066Z,1.90
2022-12-28T17:01:56.438Z,2.03
2022-12-28T17:04:23.810Z,1.90
2022-12-28T17:06:52.297Z,2.07
2022-12-28T17:09:20.514Z,2.00
2022-12-28T17:11:49.627Z,2.00
2022-12-28T17:14:35.819Z,1.90
2022-12-28T17:17:05.761Z,1.87
2022-12-28T17:19:33.103Z,1.40
2022-12-28T17:22:00.099Z,1.80
2022-12-28T17:24:27.143Z,2.23
2022-12-28T17:26:54.273Z,1.80
2022-12-28T17:29:21.311Z,2.07
2022-12-28T17:31:48.412Z,1.37
2022-12-28T17:34:15.686Z,1.40
2022-12-28T17:36:42.844Z,1.40
2022-12-28T17:39:09.847Z,1.70
2022-12-28T17:41:36.923Z,1.50
2022-12-28T17:44:05.015Z,2.00
2022-12-28T17:46:33.254Z,1.97
2022-12-28T17:49:00.646Z,1.80
2022-12-28T17:51:29.206Z,1.30
2022-12-28T17:53:57.533Z,1.83
2022-12-28T17:56:25.045Z,1.60
2022-12-28T17:58:56.717Z,1.50
2022-12-28T18:01:25.128Z,1.43
2022-12-28T18:03:52.477Z,1.60
2022-12-28T18:06:19.824Z,1.27
2022-12-28T18:08:47.191Z,1.60
2022-12-28T18:11:14.442Z,1.77
2022-12-28T18:13:43.432Z,1.50
2022-12-28T18:16:15.195Z,1.80
2022-12-28T18:18:43.183Z,1.60
2022-12-28T18:21:21.323Z,1.70
2022-12-28T18:23:51.919Z,1.90
2022-12-28T18:26:23.882Z,2.30
2022-12-28T18:28:50.904Z,1.77
2022-12-28T18:31:47.429Z,1.83
2022-12-28T18:34:14.494Z,1.83
2022-12-28T18:36:41.558Z,2.00
2022-12-28T18:39:12.995Z,1.93
2022-12-28T18:41:47.391Z,1.80
2022-12-28T18:44:14.650Z,1.70
2022-12-28T18:46:41.819Z,2.10
2022-12-28T18:49:08.991Z,1.60
2022-12-28T18:51:36.973Z,2.00
2022-12-28T18:54:04.132Z,1.90
2022-12-28T18:56:31.289Z,1.83
2022-12-28T18:58:58.925Z,2.20
2022-12-28T19:04:17.393Z,1.80
2022-12-28T19:06:45.163Z,2.00
2022-12-28T19:09:12.790Z,1.90
2022-12-28T19:11:40.276Z,1.93
2022-12-28T19:14:10.817Z,1.80
2022-12-28T19:16:38.103Z,2.30
2022-12-28T19:19:05.523Z,2.03
2022-12-28T19:21:33.839Z,1.93
2022-12-28T19:24:05.171Z,2.77
2022-12-28T19:26:34.030Z,2.00
2022-12-28T19:29:01.413Z,1.90
2022-12-28T19:31:28.586Z,2.30
2022-12-28T19:33:56.194Z,2.27
2022-12-28T19:36:23.348Z,2.37
2022-12-28T19:38:50.383Z,2.30
2022-12-28T19:41:17.429Z,2.10
2022-12-28T19:43:45.156Z,2.47
2022-12-28T19:46:30.725Z,2.03
2022-12-28T19:49:00.428Z,2.50
2022-12-28T19:51:31.674Z,2.37
2022-12-28T19:54:00.072Z,2.20
2022-12-28T19:56:27.364Z,3.37
2022-12-28T19:58:59.670Z,2.70
2022-12-28T20:01:33.421Z,2.53
2022-12-28T20:04:00.646Z,2.47
2022-12-28T20:06:30.190Z,1.90
2022-12-28T20:09:01.671Z,2.30
2022-12-28T20:11:29.694Z,2.13
2022-12-28T20:14:00.504Z,2.17
2022-12-28T20:16:31.498Z,1.83
2022-12-28T20:18:59.494Z,1.83
2022-12-28T20:21:26.707Z,1.97
2022-12-28T20:23:54.979Z,2.20
2022-12-28T20:26:24.963Z,1.93
2022-12-28T20:28:52.354Z,2.10
2022-12-28T20:31:20.891Z,2.20
2022-12-28T20:33:50.962Z,2.27
2022-12-28T20:36:25.360Z,2.10
2022-12-28T20:38:54.268Z,2.00
2022-12-28T20:41:46.976Z,2.23
2022-12-28T20:44:20.775Z,2.33
2022-12-28T20:46:47.922Z,2.50
2022-12-28T20:49:14.995Z,2.23
2022-12-28T20:51:43.204Z,2.27
2022-12-28T20:54:10.887Z,2.00
2022-12-28T20:56:38.677Z,2.70
2022-12-28T20:59:06.142Z,2.17
2022-12-28T21:01:35.401Z,2.30
2022-12-28T21:04:02.589Z,2.00
2022-12-28T21:06:29.764Z,2.10
2022-12-28T21:08:56.831Z,2.40
2022-12-28T21:11:24.084Z,2.40
2022-12-28T21:13:51.455Z,2.40
2022-12-28T21:16:18.884Z,2.67
2022-12-28T21:18:45.977Z,2.67
2022-12-28T21:21:20.631Z,2.70
2022-12-28T21:23:48.311Z,2.60
2022-12-28T21:26:18.290Z,2.10
2022-12-28T21:28:46.242Z,2.73
2022-12-28T21:31:14.801Z,2.50
2022-12-28T21:33:42.488Z,2.60
2022-12-28T21:36:19.018Z,2.53
2022-12-28T21:38:48.185Z,2.40
2022-12-28T21:41:37.178Z,2.40
2022-12-28T21:44:06.821Z,2.33
2022-12-28T21:46:34.884Z,2.93
2022-12-28T21:49:03.604Z,2.50
2022-12-28T21:51:38.361Z,1.97
2022-12-28T21:54:11.145Z,2.13
2022-12-28T21:56:39.255Z,2.27
2022-12-28T21:59:06.573Z,2.23
2022-12-28T22:01:52.534Z,1.83
2022-12-28T22:04:41.395Z,2.50
2022-12-28T22:07:12.196Z,2.20
2022-12-28T22:09:58.580Z,2.10
2022-12-28T22:12:36.824Z,2.10
2022-12-28T22:15:28.496Z,2.17
2022-12-28T22:19:00.388Z,1.83
2022-12-28T22:21:10.595Z,2.27
2022-12-28T22:23:37.561Z,2.23
2022-12-28T22:26:04.690Z,2.17
2022-12-28T22:28:31.911Z,2.17
2022-12-28T22:31:03.402Z,2.27
2022-12-28T22:33:30.460Z,1.90
2022-12-28T22:35:57.516Z,2.37
2022-12-28T22:38:24.649Z,3.10
2022-12-28T22:41:00.844Z,1.90
2022-12-28T22:43:27.853Z,2.03
2022-12-28T22:46:10.500Z,2.37
2022-12-28T22:48:38.330Z,2.30
2022-12-28T22:51:08.988Z,2.23
2022-12-28T22:53:36.712Z,2.20
2022-12-28T22:56:07.659Z,2.10
2022-12-28T22:58:34.733Z,2.20
2022-12-28T23:01:11.618Z,2.10
2022-12-28T23:03:40.944Z,2.10
2022-12-28T23:06:10.165Z,1.87
2022-12-28T23:08:37.614Z,2.30
2022-12-28T23:11:27.041Z,2.33
2022-12-28T23:13:54.060Z,2.10
2022-12-28T23:16:21.480Z,1.77
2022-12-28T23:19:07.337Z,1.97
2022-12-28T23:21:53.393Z,1.93
2022-12-28T23:24:39.108Z,1.77
2022-12-28T23:27:22.065Z,1.90
2022-12-28T23:29:49.017Z,1.70
2022-12-28T23:32:16.145Z,1.87
2022-12-28T23:34:43.179Z,2.40
2022-12-28T23:37:10.219Z,2.10
2022-12-28T23:39:37.248Z,2.03
2022-12-28T23:42:04.388Z,1.77
2022-12-28T23:44:31.494Z,1.60
2022-12-28T23:46:59.643Z,1.80
2022-12-28T23:49:27.280Z,1.70
2022-12-28T23:51:54.521Z,1.60
2022-12-28T23:54:22.229Z,1.40
2022-12-28T23:56:49.500Z,1.67
2022-12-28T23:59:16.533Z,1.60
